sensor_id;sensor_type;location;lat;lon;timestamp;temperature;humidity
5150;DHT22;2593;52.466;13.436;2022-12-08T00:01:08;1.30;99.90
5150;DHT22;2593;52.466;13.436;2022-12-08T00:03:35;1.30;99.90
5150;DHT22;2593;52.466;13.436;2022-12-08T00:06:02;1.20;99.90
5150;DHT22;2593;52.466;13.436;2022-12-08T00:08:47;1.30;99.90
5150;DHT22;2593;52.466;13.436;2022-12-08T00:11:31;1.30;99.90
5150;DHT22;2593;52.466;13.436;2022-12-08T00:13:57;1.30;99.90
5150;DHT22;2593;52.466;13.436;2022-12-08T00:16:23;1.30;99.90
5150;DHT22;2593;52.466;13.436;2022-12-08T00:18:48;1.30;99.90
5150;DHT22;2593;52.466;13.436;2022-12-08T00:21:14;1.30;99.90
5150;DHT22;2593;52.466;13.436;2022-12-08T00:23:40;1.30;99.90
5150;DHT22;2593;52.466;13.436;2022-12-08T00:26:06;1.30;99.90
5150;DHT22;2593;52.466;13.436;2022-12-08T00:28:32;1.20;99.90
5150;DHT22;2593;52.466;13.436;2022-12-08T00:30:59;1.30;99.90
5150;DHT22;2593;52.466;13.436;2022-12-08T00:33:26;1.30;99.90
5150;DHT22;2593;52.466;13.436;2022-12-08T00:35:52;1.40;99.90
5150;DHT22;2593;52.466;13.436;2022-12-08T00:38:18;1.40;99.90
5150;DHT22;2593;52.466;13.436;2022-12-08T00:40:46;1.40;99.90
5150;DHT22;2593;52.466;13.436;2022-12-08T00:43:13;1.50;99.90
5150;DHT22;2593;52.466;13.436;2022-12-08T00:45:38;1.50;99.90
5150;DHT22;2593;52.466;13.436;2022-12-08T00:48:05;1.50;99.90
5150;DHT22;2593;52.466;13.436;2022-12-08T00:50:31;1.50;99.90
5150;DHT22;2593;52.466;13.436;2022-12-08T00:52:56;1.60;99.90
5150;DHT22;2593;52.466;13.436;2022-12-08T00:55:22;1.60;94.70
5150;DHT22;2593;52.466;13.436;2022-12-08T00:57:48;1.60;35.50
5150;DHT22;2593;52.466;13.436;2022-12-08T01:00:14;1.70;1.00
5150;DHT22;2593;52.466;13.436;2022-12-08T01:02:39;1.70;1.00
5150;DHT22;2593;52.466;13.436;2022-12-08T01:05:06;1.70;1.00
5150;DHT22;2593;52.466;13.436;2022-12-08T01:07:31;1.70;1.00
5150;DHT22;2593;52.466;13.436;2022-12-08T01:09:57;1.70;1.00
5150;DHT22;2593;52.466;13.436;2022-12-08T01:12:23;1.70;1.00
5150;DHT22;2593;52.466;13.436;2022-12-08T01:14:49;1.70;1.00
5150;DHT22;2593;52.466;13.436;2022-12-08T01:17:15;1.60;1.00
5150;DHT22;2593;52.466;13.436;2022-12-08T01:19:40;1.70;1.00
5150;DHT22;2593;52.466;13.436;2022-12-08T01:22:06;1.70;1.00
5150;DHT22;2593;52.466;13.436;2022-12-08T01:24:31;1.70;1.00
5150;DHT22;2593;52.466;13.436;2022-12-08T01:26:57;1.70;1.00
5150;DHT22;2593;52.466;13.436;2022-12-08T01:29:23;1.80;99.90
5150;DHT22;2593;52.466;13.436;2022-12-08T01:31:48;1.70;99.90
5150;DHT22;2593;52.466;13.436;2022-12-08T01:34:14;1.70;99.90
5150;DHT22;2593;52.466;13.436;2022-12-08T01:36:39;1.70;99.90
5150;DHT22;2593;52.466;13.436;2022-12-08T01:39:13;1.70;99.90
5150;DHT22;2593;52.466;13.436;2022-12-08T01:41:41;1.80;99.90
5150;DHT22;2593;52.466;13.436;2022-12-08T01:46:37;1.60;99.90
5150;DHT22;2593;52.466;13.436;2022-12-08T01:54:15;1.50;1.00
5150;DHT22;2593;52.466;13.436;2022-12-08T01:59:21;1.50;99.90
5150;DHT22;2593;52.466;13.436;2022-12-08T02:01:48;1.50;99.90
5150;DHT22;2593;52.466;13.436;2022-12-08T02:04:14;1.50;99.90
5150;DHT22;2593;52.466;13.436;2022-12-08T02:06:42;1.50;99.90
5150;DHT22;2593;52.466;13.436;2022-12-08T02:09:08;1.50;99.90
5150;DHT22;2593;52.466;13.436;2022-12-08T02:11:34;1.40;99.90
5150;DHT22;2593;52.466;13.436;2022-12-08T02:14:00;1.50;99.90
5150;DHT22;2593;52.466;13.436;2022-12-08T02:16:48;1.50;99.90
5150;DHT22;2593;52.466;13.436;2022-12-08T02:36:31;1.40;99.90
5150;DHT22;2593;52.466;13.436;2022-12-08T02:42:19;1.40;99.90
5150;DHT22;2593;52.466;13.436;2022-12-08T02:44:42;1.40;99.90
5150;DHT22;2593;52.466;13.436;2022-12-08T02:47:18;1.40;99.90
5150;DHT22;2593;52.466;13.436;2022-12-08T02:49:44;1.40;99.90
5150;DHT22;2593;52.466;13.436;2022-12-08T02:54:37;1.30;99.90
5150;DHT22;2593;52.466;13.436;2022-12-08T02:57:15;1.30;99.90
5150;DHT22;2593;52.466;13.436;2022-12-08T03:00:06;1.30;99.90
5150;DHT22;2593;52.466;13.436;2022-12-08T03:11:29;1.50;99.90
5150;DHT22;2593;52.466;13.436;2022-12-08T03:13:59;1.60;99.90
5150;DHT22;2593;52.466;13.436;2022-12-08T03:16:27;1.60;99.90
5150;DHT22;2593;52.466;13.436;2022-12-08T03:19:06;1.50;99.90
5150;DHT22;2593;52.466;13.436;2022-12-08T03:21:34;1.50;99.90
5150;DHT22;2593;52.466;13.436;2022-12-08T03:24:03;1.50;99.90
5150;DHT22;2593;52.466;13.436;2022-12-08T03:26:35;1.50;99.90
5150;DHT22;2593;52.466;13.436;2022-12-08T03:29:05;1.50;99.90
5150;DHT22;2593;52.466;13.436;2022-12-08T03:31:35;1.50;99.90
5150;DHT22;2593;52.466;13.436;2022-12-08T03:34:04;1.50;99.90
5150;DHT22;2593;52.466;13.436;2022-12-08T03:36:31;1.60;99.90
5150;DHT22;2593;52.466;13.436;2022-12-08T03:38:56;1.60;99.90
5150;DHT22;2593;52.466;13.436;2022-12-08T03:41:22;1.60;99.90
5150;DHT22;2593;52.466;13.436;2022-12-08T03:43:53;1.60;99.90
5150;DHT22;2593;52.466;13.436;2022-12-08T03:46:21;1.50;99.90
5150;DHT22;2593;52.466;13.436;2022-12-08T03:48:47;1.40;99.90
5150;DHT22;2593;52.466;13.436;2022-12-08T03:51:13;1.50;99.90
5150;DHT22;2593;52.466;13.436;2022-12-08T03:53:39;1.50;99.90
5150;DHT22;2593;52.466;13.436;2022-12-08T03:56:14;1.50;99.90
5150;DHT22;2593;52.466;13.436;2022-12-08T03:58:41;1.40;99.90
5150;DHT22;2593;52.466;13.436;2022-12-08T04:01:07;1.50;99.90
5150;DHT22;2593;52.466;13.436;2022-12-08T04:03:32;1.50;99.90
5150;DHT22;2593;52.466;13.436;2022-12-08T04:05:58;1.50;99.90
5150;DHT22;2593;52.466;13.436;2022-12-08T04:08:23;1.50;99.90
5150;DHT22;2593;52.466;13.436;2022-12-08T04:10:49;1.40;99.90
5150;DHT22;2593;52.466;13.436;2022-12-08T04:13:15;1.40;99.90
5150;DHT22;2593;52.466;13.436;2022-12-08T04:15:47;1.50;99.90
5150;DHT22;2593;52.466;13.436;2022-12-08T04:18:13;1.50;99.90
5150;DHT22;2593;52.466;13.436;2022-12-08T04:20:40;1.60;99.90
5150;DHT22;2593;52.466;13.436;2022-12-08T04:23:07;1.60;99.90
5150;DHT22;2593;52.466;13.436;2022-12-08T04:25:33;1.60;99.90
5150;DHT22;2593;52.466;13.436;2022-12-08T04:27:58;1.60;99.90
5150;DHT22;2593;52.466;13.436;2022-12-08T04:30:24;1.60;99.90
5150;DHT22;2593;52.466;13.436;2022-12-08T04:32:49;1.60;99.90
5150;DHT22;2593;52.466;13.436;2022-12-08T04:35:15;1.60;99.90
5150;DHT22;2593;52.466;13.436;2022-12-08T04:37:41;1.60;99.90
5150;DHT22;2593;52.466;13.436;2022-12-08T04:40:09;1.60;99.90
5150;DHT22;2593;52.466;13.436;2022-12-08T04:42:34;1.60;99.90
5150;DHT22;2593;52.466;13.436;2022-12-08T04:45:00;1.60;99.90
5150;DHT22;2593;52.466;13.436;2022-12-08T04:47:26;1.70;99.90
5150;DHT22;2593;52.466;13.436;2022-12-08T04:49:51;1.70;99.90
5150;DHT22;2593;52.466;13.436;2022-12-08T04:52:17;1.70;99.90
5150;DHT22;2593;52.466;13.436;2022-12-08T04:54:42;1.70;99.90
5150;DHT22;2593;52.466;13.436;2022-12-08T04:57:08;1.70;99.90
5150;DHT22;2593;52.466;13.436;2022-12-08T04:59:34;1.70;99.90
5150;DHT22;2593;52.466;13.436;2022-12-08T05:01:59;1.80;99.90
5150;DHT22;2593;52.466;13.436;2022-12-08T05:04:25;1.80;99.90
5150;DHT22;2593;52.466;13.436;2022-12-08T05:06:50;1.80;99.90
5150;DHT22;2593;52.466;13.436;2022-12-08T05:09:16;1.80;99.90
5150;DHT22;2593;52.466;13.436;2022-12-08T05:11:42;1.80;99.90
5150;DHT22;2593;52.466;13.436;2022-12-08T05:14:12;1.80;99.90
5150;DHT22;2593;52.466;13.436;2022-12-08T05:16:38;1.80;99.90
5150;DHT22;2593;52.466;13.436;2022-12-08T05:19:04;1.80;99.90
5150;DHT22;2593;52.466;13.436;2022-12-08T05:21:30;1.80;99.90
5150;DHT22;2593;52.466;13.436;2022-12-08T05:23:56;1.80;99.90
5150;DHT22;2593;52.466;13.436;2022-12-08T05:26:21;1.80;99.90
5150;DHT22;2593;52.466;13.436;2022-12-08T05:28:47;1.80;99.90
5150;DHT22;2593;52.466;13.436;2022-12-08T05:31:14;1.80;99.90
5150;DHT22;2593;52.466;13.436;2022-12-08T05:33:40;1.80;99.90
5150;DHT22;2593;52.466;13.436;2022-12-08T05:36:07;1.80;99.90
5150;DHT22;2593;52.466;13.436;2022-12-08T05:38:33;1.90;99.90
5150;DHT22;2593;52.466;13.436;2022-12-08T05:40:58;1.90;99.90
5150;DHT22;2593;52.466;13.436;2022-12-08T05:43:24;1.90;99.90
5150;DHT22;2593;52.466;13.436;2022-12-08T05:45:49;1.90;99.90
5150;DHT22;2593;52.466;13.436;2022-12-08T05:48:15;1.90;99.90
5150;DHT22;2593;52.466;13.436;2022-12-08T05:50:47;1.90;99.90
5150;DHT22;2593;52.466;13.436;2022-12-08T05:53:15;1.90;99.90
5150;DHT22;2593;52.466;13.436;2022-12-08T05:55:40;1.90;99.90
5150;DHT22;2593;52.466;13.436;2022-12-08T05:58:06;2.00;99.90
5150;DHT22;2593;52.466;13.436;2022-12-08T06:00:34;2.00;99.90
5150;DHT22;2593;52.466;13.436;2022-12-08T06:02:59;2.00;99.90
5150;DHT22;2593;52.466;13.436;2022-12-08T06:05:25;2.00;99.90
5150;DHT22;2593;52.466;13.436;2022-12-08T06:07:51;2.00;99.90
5150;DHT22;2593;52.466;13.436;2022-12-08T06:10:17;2.00;99.90
5150;DHT22;2593;52.466;13.436;2022-12-08T06:12:42;2.00;99.90
5150;DHT22;2593;52.466;13.436;2022-12-08T06:15:08;2.00;99.90
5150;DHT22;2593;52.466;13.436;2022-12-08T06:17:34;2.00;99.90
5150;DHT22;2593;52.466;13.436;2022-12-08T06:20:00;2.10;99.90
5150;DHT22;2593;52.466;13.436;2022-12-08T06:22:26;2.00;99.90
5150;DHT22;2593;52.466;13.436;2022-12-08T06:24:52;2.10;99.90
5150;DHT22;2593;52.466;13.436;2022-12-08T06:27:18;2.10;99.90
5150;DHT22;2593;52.466;13.436;2022-12-08T06:29:44;2.10;99.90
5150;DHT22;2593;52.466;13.436;2022-12-08T06:32:10;2.10;99.90
5150;DHT22;2593;52.466;13.436;2022-12-08T06:34:36;2.10;99.90
5150;DHT22;2593;52.466;13.436;2022-12-08T06:37:02;2.10;99.90
5150;DHT22;2593;52.466;13.436;2022-12-08T06:39:27;2.10;99.90
5150;DHT22;2593;52.466;13.436;2022-12-08T06:41:53;2.00;99.90
5150;DHT22;2593;52.466;13.436;2022-12-08T06:44:38;2.10;99.90
5150;DHT22;2593;52.466;13.436;2022-12-08T06:47:04;2.00;99.90
5150;DHT22;2593;52.466;13.436;2022-12-08T06:49:30;2.00;99.90
5150;DHT22;2593;52.466;13.436;2022-12-08T06:51:55;2.00;99.90
5150;DHT22;2593;52.466;13.436;2022-12-08T06:54:21;2.00;99.90
5150;DHT22;2593;52.466;13.436;2022-12-08T06:56:46;2.00;99.90
5150;DHT22;2593;52.466;13.436;2022-12-08T06:59:12;1.90;99.90
5150;DHT22;2593;52.466;13.436;2022-12-08T07:01:38;1.90;99.90
5150;DHT22;2593;52.466;13.436;2022-12-08T07:04:03;1.90;99.90
5150;DHT22;2593;52.466;13.436;2022-12-08T07:06:29;2.00;99.90
5150;DHT22;2593;52.466;13.436;2022-12-08T07:08:55;2.00;99.90
5150;DHT22;2593;52.466;13.436;2022-12-08T07:11:20;2.00;99.90
5150;DHT22;2593;52.466;13.436;2022-12-08T07:13:46;2.10;99.90
5150;DHT22;2593;52.466;13.436;2022-12-08T07:16:12;2.10;99.90
5150;DHT22;2593;52.466;13.436;2022-12-08T07:18:38;2.20;99.90
5150;DHT22;2593;52.466;13.436;2022-12-08T07:21:09;2.20;99.90
5150;DHT22;2593;52.466;13.436;2022-12-08T07:23:35;2.20;99.90
5150;DHT22;2593;52.466;13.436;2022-12-08T07:26:03;2.20;99.90
5150;DHT22;2593;52.466;13.436;2022-12-08T07:28:30;2.30;99.90
5150;DHT22;2593;52.466;13.436;2022-12-08T07:30:56;2.30;99.90
5150;DHT22;2593;52.466;13.436;2022-12-08T07:33:22;2.30;99.90
5150;DHT22;2593;52.466;13.436;2022-12-08T07:36:15;2.30;99.90
5150;DHT22;2593;52.466;13.436;2022-12-08T07:38:41;2.30;99.90
5150;DHT22;2593;52.466;13.436;2022-12-08T07:41:15;2.30;99.90
5150;DHT22;2593;52.466;13.436;2022-12-08T07:43:42;2.40;99.90
5150;DHT22;2593;52.466;13.436;2022-12-08T07:46:10;2.40;99.90
5150;DHT22;2593;52.466;13.436;2022-12-08T07:48:36;2.40;99.90
5150;DHT22;2593;52.466;13.436;2022-12-08T07:51:03;2.40;99.90
5150;DHT22;2593;52.466;13.436;2022-12-08T07:53:29;2.40;99.90
5150;DHT22;2593;52.466;13.436;2022-12-08T07:55:55;2.40;99.90
5150;DHT22;2593;52.466;13.436;2022-12-08T07:58:20;2.50;99.90
5150;DHT22;2593;52.466;13.436;2022-12-08T08:00:46;2.50;99.90
5150;DHT22;2593;52.466;13.436;2022-12-08T08:03:12;2.50;99.90
5150;DHT22;2593;52.466;13.436;2022-12-08T08:05:38;2.60;99.90
5150;DHT22;2593;52.466;13.436;2022-12-08T08:08:03;2.60;99.90
5150;DHT22;2593;52.466;13.436;2022-12-08T08:10:29;2.70;99.90
5150;DHT22;2593;52.466;13.436;2022-12-08T08:12:58;2.70;99.90
5150;DHT22;2593;52.466;13.436;2022-12-08T08:15:25;2.70;99.90
5150;DHT22;2593;52.466;13.436;2022-12-08T08:17:50;2.80;99.90
5150;DHT22;2593;52.466;13.436;2022-12-08T08:20:17;2.80;99.90
5150;DHT22;2593;52.466;13.436;2022-12-08T08:22:45;2.80;99.90
5150;DHT22;2593;52.466;13.436;2022-12-08T08:25:11;2.80;99.90
5150;DHT22;2593;52.466;13.436;2022-12-08T08:27:37;2.80;99.90
5150;DHT22;2593;52.466;13.436;2022-12-08T08:30:05;2.80;99.90
5150;DHT22;2593;52.466;13.436;2022-12-08T08:32:34;2.90;99.90
5150;DHT22;2593;52.466;13.436;2022-12-08T08:35:00;2.90;99.90
5150;DHT22;2593;52.466;13.436;2022-12-08T08:37:26;2.90;99.90
5150;DHT22;2593;52.466;13.436;2022-12-08T08:39:52;2.90;99.90
5150;DHT22;2593;52.466;13.436;2022-12-08T08:42:18;2.90;99.90
5150;DHT22;2593;52.466;13.436;2022-12-08T08:44:43;3.00;99.90
5150;DHT22;2593;52.466;13.436;2022-12-08T08:47:09;3.10;99.90
5150;DHT22;2593;52.466;13.436;2022-12-08T08:49:35;3.20;99.90
5150;DHT22;2593;52.466;13.436;2022-12-08T08:52:02;3.20;99.90
5150;DHT22;2593;52.466;13.436;2022-12-08T08:54:28;3.20;99.90
5150;DHT22;2593;52.466;13.436;2022-12-08T08:56:55;3.20;99.90
5150;DHT22;2593;52.466;13.436;2022-12-08T08:59:21;3.20;99.90
5150;DHT22;2593;52.466;13.436;2022-12-08T09:01:46;3.10;99.90
5150;DHT22;2593;52.466;13.436;2022-12-08T09:04:12;3.10;99.90
5150;DHT22;2593;52.466;13.436;2022-12-08T09:06:37;3.20;99.90
5150;DHT22;2593;52.466;13.436;2022-12-08T09:09:03;3.20;99.90
5150;DHT22;2593;52.466;13.436;2022-12-08T09:11:29;3.30;99.90
5150;DHT22;2593;52.466;13.436;2022-12-08T09:13:56;3.30;99.90
5150;DHT22;2593;52.466;13.436;2022-12-08T09:16:22;3.40;99.90
5150;DHT22;2593;52.466;13.436;2022-12-08T09:18:48;3.40;99.90
5150;DHT22;2593;52.466;13.436;2022-12-08T09:21:17;3.60;99.90
5150;DHT22;2593;52.466;13.436;2022-12-08T09:23:51;3.70;99.90
5150;DHT22;2593;52.466;13.436;2022-12-08T09:26:17;3.80;99.90
5150;DHT22;2593;52.466;13.436;2022-12-08T09:28:42;3.90;99.90
5150;DHT22;2593;52.466;13.436;2022-12-08T09:31:12;4.10;99.90
5150;DHT22;2593;52.466;13.436;2022-12-08T09:33:38;4.20;99.90
5150;DHT22;2593;52.466;13.436;2022-12-08T09:36:04;4.20;99.90
5150;DHT22;2593;52.466;13.436;2022-12-08T09:38:30;4.30;99.90
5150;DHT22;2593;52.466;13.436;2022-12-08T09:40:56;4.30;99.90
5150;DHT22;2593;52.466;13.436;2022-12-08T09:46:03;4.40;99.90
5150;DHT22;2593;52.466;13.436;2022-12-08T09:48:34;4.30;99.90
5150;DHT22;2593;52.466;13.436;2022-12-08T09:51:00;4.20;99.90
5150;DHT22;2593;52.466;13.436;2022-12-08T09:53:38;4.20;99.90
5150;DHT22;2593;52.466;13.436;2022-12-08T09:56:15;4.20;99.90
5150;DHT22;2593;52.466;13.436;2022-12-08T10:01:19;4.20;99.90
5150;DHT22;2593;52.466;13.436;2022-12-08T10:03:45;4.30;99.90
5150;DHT22;2593;52.466;13.436;2022-12-08T10:06:59;4.30;99.90
5150;DHT22;2593;52.466;13.436;2022-12-08T10:11:58;4.40;99.90
5150;DHT22;2593;52.466;13.436;2022-12-08T10:14:46;4.50;99.90
5150;DHT22;2593;52.466;13.436;2022-12-08T10:17:44;4.40;99.90
5150;DHT22;2593;52.466;13.436;2022-12-08T10:20:37;4.50;99.90
5150;DHT22;2593;52.466;13.436;2022-12-08T10:23:20;4.50;99.90
5150;DHT22;2593;52.466;13.436;2022-12-08T10:25:49;4.50;99.90
5150;DHT22;2593;52.466;13.436;2022-12-08T10:28:16;4.40;99.90
5150;DHT22;2593;52.466;13.436;2022-12-08T10:30:42;4.30;99.90
5150;DHT22;2593;52.466;13.436;2022-12-08T10:33:20;4.30;99.90
5150;DHT22;2593;52.466;13.436;2022-12-08T10:41:03;4.20;99.90
5150;DHT22;2593;52.466;13.436;2022-12-08T10:43:30;4.20;99.90
5150;DHT22;2593;52.466;13.436;2022-12-08T10:46:07;4.20;99.90
5150;DHT22;2593;52.466;13.436;2022-12-08T10:48:34;4.20;99.90
5150;DHT22;2593;52.466;13.436;2022-12-08T10:51:00;4.20;99.90
5150;DHT22;2593;52.466;13.436;2022-12-08T10:53:32;4.20;99.90
5150;DHT22;2593;52.466;13.436;2022-12-08T11:03:49;4.20;99.90
5150;DHT22;2593;52.466;13.436;2022-12-08T11:06:20;4.10;99.90
5150;DHT22;2593;52.466;13.436;2022-12-08T11:08:58;4.10;99.90
5150;DHT22;2593;52.466;13.436;2022-12-08T11:11:48;4.10;99.90
5150;DHT22;2593;52.466;13.436;2022-12-08T11:19:37;4.00;99.90
5150;DHT22;2593;52.466;13.436;2022-12-08T11:25:18;3.90;99.90
5150;DHT22;2593;52.466;13.436;2022-12-08T11:27:48;3.80;99.90
5150;DHT22;2593;52.466;13.436;2022-12-08T11:30:23;3.80;99.90
5150;DHT22;2593;52.466;13.436;2022-12-08T11:32:53;3.70;99.90
5150;DHT22;2593;52.466;13.436;2022-12-08T11:35:36;3.60;99.90
5150;DHT22;2593;52.466;13.436;2022-12-08T11:38:20;3.70;99.90
5150;DHT22;2593;52.466;13.436;2022-12-08T11:41:02;3.70;99.90
5150;DHT22;2593;52.466;13.436;2022-12-08T11:44:11;3.70;99.90
5150;DHT22;2593;52.466;13.436;2022-12-08T11:46:48;3.70;99.90
5150;DHT22;2593;52.466;13.436;2022-12-08T11:49:14;3.70;99.90
5150;DHT22;2593;52.466;13.436;2022-12-08T11:52:16;3.70;99.90
5150;DHT22;2593;52.466;13.436;2022-12-08T11:54:50;3.80;99.90
5150;DHT22;2593;52.466;13.436;2022-12-08T11:57:16;3.90;99.90
5150;DHT22;2593;52.466;13.436;2022-12-08T11:59:49;3.80;99.90
5150;DHT22;2593;52.466;13.436;2022-12-08T12:02:18;3.80;99.90
5150;DHT22;2593;52.466;13.436;2022-12-08T12:11:02;3.70;99.90
5150;DHT22;2593;52.466;13.436;2022-12-08T12:13:44;3.70;99.90
5150;DHT22;2593;52.466;13.436;2022-12-08T12:19:03;3.70;99.90
5150;DHT22;2593;52.466;13.436;2022-12-08T12:21:40;3.80;99.90
5150;DHT22;2593;52.466;13.436;2022-12-08T12:24:22;3.90;99.90
5150;DHT22;2593;52.466;13.436;2022-12-08T12:26:57;3.80;99.90
5150;DHT22;2593;52.466;13.436;2022-12-08T12:29:28;3.70;99.90
5150;DHT22;2593;52.466;13.436;2022-12-08T12:31:59;3.70;99.90
5150;DHT22;2593;52.466;13.436;2022-12-08T12:34:32;3.70;99.90
5150;DHT22;2593;52.466;13.436;2022-12-08T12:37:35;3.70;99.90
5150;DHT22;2593;52.466;13.436;2022-12-08T12:40:02;3.60;99.90
5150;DHT22;2593;52.466;13.436;2022-12-08T12:42:46;3.60;99.90
5150;DHT22;2593;52.466;13.436;2022-12-08T13:03:40;3.90;99.90
5150;DHT22;2593;52.466;13.436;2022-12-08T13:06:08;3.90;99.90
5150;DHT22;2593;52.466;13.436;2022-12-08T13:08:38;3.90;99.90
5150;DHT22;2593;52.466;13.436;2022-12-08T13:11:09;3.80;99.90
5150;DHT22;2593;52.466;13.436;2022-12-08T13:13:55;3.80;99.90
5150;DHT22;2593;52.466;13.436;2022-12-08T13:16:24;3.80;99.90
5150;DHT22;2593;52.466;13.436;2022-12-08T13:19:02;3.80;99.90
5150;DHT22;2593;52.466;13.436;2022-12-08T13:21:36;3.70;99.90
5150;DHT22;2593;52.466;13.436;2022-12-08T13:24:30;3.70;99.90
5150;DHT22;2593;52.466;13.436;2022-12-08T13:29:32;3.70;99.90
5150;DHT22;2593;52.466;13.436;2022-12-08T13:32:03;3.80;99.90
5150;DHT22;2593;52.466;13.436;2022-12-08T13:34:54;3.90;99.90
5150;DHT22;2593;52.466;13.436;2022-12-08T13:37:25;3.90;99.90
5150;DHT22;2593;52.466;13.436;2022-12-08T13:39:54;3.90;99.90
5150;DHT22;2593;52.466;13.436;2022-12-08T13:45:23;4.00;99.90
5150;DHT22;2593;52.466;13.436;2022-12-08T13:47:56;4.00;99.90
5150;DHT22;2593;52.466;13.436;2022-12-08T13:50:38;4.00;99.90
5150;DHT22;2593;52.466;13.436;2022-12-08T13:55:45;4.00;99.90
5150;DHT22;2593;52.466;13.436;2022-12-08T13:58:17;3.90;99.90
5150;DHT22;2593;52.466;13.436;2022-12-08T14:06:16;3.90;99.90
5150;DHT22;2593;52.466;13.436;2022-12-08T14:08:42;3.90;99.90
5150;DHT22;2593;52.466;13.436;2022-12-08T14:11:35;3.90;99.90
5150;DHT22;2593;52.466;13.436;2022-12-08T14:14:07;3.90;99.90
5150;DHT22;2593;52.466;13.436;2022-12-08T14:16:50;3.80;99.90
5150;DHT22;2593;52.466;13.436;2022-12-08T14:19:19;4.20;99.90
5150;DHT22;2593;52.466;13.436;2022-12-08T14:22:11;4.30;99.90
5150;DHT22;2593;52.466;13.436;2022-12-08T14:24:38;4.20;99.90
5150;DHT22;2593;52.466;13.436;2022-12-08T14:27:08;4.10;99.90
5150;DHT22;2593;52.466;13.436;2022-12-08T14:35:18;3.80;99.90
5150;DHT22;2593;52.466;13.436;2022-12-08T14:37:49;3.80;99.90
5150;DHT22;2593;52.466;13.436;2022-12-08T14:40:32;3.70;99.90
5150;DHT22;2593;52.466;13.436;2022-12-08T14:48:21;3.70;99.90
5150;DHT22;2593;52.466;13.436;2022-12-08T14:51:03;3.60;99.90
5150;DHT22;2593;52.466;13.436;2022-12-08T14:56:13;3.50;99.90
5150;DHT22;2593;52.466;13.436;2022-12-08T14:58:41;3.50;99.90
5150;DHT22;2593;52.466;13.436;2022-12-08T15:01:06;3.40;99.90
5150;DHT22;2593;52.466;13.436;2022-12-08T15:03:34;3.30;99.90
5150;DHT22;2593;52.466;13.436;2022-12-08T15:06:04;3.20;99.90
5150;DHT22;2593;52.466;13.436;2022-12-08T15:08:31;3.20;99.90
5150;DHT22;2593;52.466;13.436;2022-12-08T15:13:47;3.20;99.90
5150;DHT22;2593;52.466;13.436;2022-12-08T15:16:41;3.20;99.90
5150;DHT22;2593;52.466;13.436;2022-12-08T15:19:29;3.30;99.90
5150;DHT22;2593;52.466;13.436;2022-12-08T15:22:16;3.30;99.90
5150;DHT22;2593;52.466;13.436;2022-12-08T15:24:42;3.30;99.90
5150;DHT22;2593;52.466;13.436;2022-12-08T15:27:15;3.30;99.90
5150;DHT22;2593;52.466;13.436;2022-12-08T15:29:42;3.30;99.90
5150;DHT22;2593;52.466;13.436;2022-12-08T15:32:09;3.20;99.90
5150;DHT22;2593;52.466;13.436;2022-12-08T15:34:35;3.20;99.90
5150;DHT22;2593;52.466;13.436;2022-12-08T15:37:02;3.20;99.90
5150;DHT22;2593;52.466;13.436;2022-12-08T15:39:36;3.20;99.90
5150;DHT22;2593;52.466;13.436;2022-12-08T15:42:04;3.10;99.90
5150;DHT22;2593;52.466;13.436;2022-12-08T15:44:34;3.10;99.90
5150;DHT22;2593;52.466;13.436;2022-12-08T15:47:00;3.10;99.90
5150;DHT22;2593;52.466;13.436;2022-12-08T15:49:26;3.10;99.90
5150;DHT22;2593;52.466;13.436;2022-12-08T15:51:52;3.10;99.90
5150;DHT22;2593;52.466;13.436;2022-12-08T15:54:18;3.10;99.90
5150;DHT22;2593;52.466;13.436;2022-12-08T15:56:55;3.10;99.90
5150;DHT22;2593;52.466;13.436;2022-12-08T15:59:23;3.10;99.90
5150;DHT22;2593;52.466;13.436;2022-12-08T16:01:49;3.10;99.90
5150;DHT22;2593;52.466;13.436;2022-12-08T16:04:20;3.10;99.90
5150;DHT22;2593;52.466;13.436;2022-12-08T16:06:51;3.10;99.90
5150;DHT22;2593;52.466;13.436;2022-12-08T16:09:28;3.10;99.90
5150;DHT22;2593;52.466;13.436;2022-12-08T16:11:55;3.00;99.90
5150;DHT22;2593;52.466;13.436;2022-12-08T16:14:39;3.00;99.90
5150;DHT22;2593;52.466;13.436;2022-12-08T16:17:15;3.00;99.90
5150;DHT22;2593;52.466;13.436;2022-12-08T16:19:41;3.00;99.90
5150;DHT22;2593;52.466;13.436;2022-12-08T16:22:13;3.00;99.90
5150;DHT22;2593;52.466;13.436;2022-12-08T16:24:39;3.00;99.90
5150;DHT22;2593;52.466;13.436;2022-12-08T16:27:05;3.00;99.90
5150;DHT22;2593;52.466;13.436;2022-12-08T16:29:31;3.00;99.90
5150;DHT22;2593;52.466;13.436;2022-12-08T16:31:56;3.00;99.90
5150;DHT22;2593;52.466;13.436;2022-12-08T16:34:22;3.00;99.90
5150;DHT22;2593;52.466;13.436;2022-12-08T16:36:47;2.90;99.90
5150;DHT22;2593;52.466;13.436;2022-12-08T16:39:16;2.90;99.90
5150;DHT22;2593;52.466;13.436;2022-12-08T16:41:42;2.90;99.90
5150;DHT22;2593;52.466;13.436;2022-12-08T16:44:26;2.90;99.90
5150;DHT22;2593;52.466;13.436;2022-12-08T16:46:52;2.90;99.90
5150;DHT22;2593;52.466;13.436;2022-12-08T16:49:17;2.90;99.90
5150;DHT22;2593;52.466;13.436;2022-12-08T16:51:43;2.90;99.90
5150;DHT22;2593;52.466;13.436;2022-12-08T16:54:09;2.90;99.90
5150;DHT22;2593;52.466;13.436;2022-12-08T16:56:35;2.80;99.90
5150;DHT22;2593;52.466;13.436;2022-12-08T16:59:02;2.80;99.90
5150;DHT22;2593;52.466;13.436;2022-12-08T17:01:28;2.80;99.90
5150;DHT22;2593;52.466;13.436;2022-12-08T17:03:53;2.80;99.90
5150;DHT22;2593;52.466;13.436;2022-12-08T17:06:19;2.80;99.90
5150;DHT22;2593;52.466;13.436;2022-12-08T17:08:45;2.70;99.90
5150;DHT22;2593;52.466;13.436;2022-12-08T17:11:20;2.70;99.90
5150;DHT22;2593;52.466;13.436;2022-12-08T17:13:46;2.70;99.90
5150;DHT22;2593;52.466;13.436;2022-12-08T17:16:15;2.70;99.90
5150;DHT22;2593;52.466;13.436;2022-12-08T17:18:42;2.70;99.90
5150;DHT22;2593;52.466;13.436;2022-12-08T17:21:12;2.70;99.90
5150;DHT22;2593;52.466;13.436;2022-12-08T17:23:39;2.60;99.90
5150;DHT22;2593;52.466;13.436;2022-12-08T17:26:06;2.60;99.90
5150;DHT22;2593;52.466;13.436;2022-12-08T17:28:32;2.60;99.90
5150;DHT22;2593;52.466;13.436;2022-12-08T17:30:57;2.60;99.90
5150;DHT22;2593;52.466;13.436;2022-12-08T17:33:25;2.60;99.90
5150;DHT22;2593;52.466;13.436;2022-12-08T17:35:52;2.50;99.90
5150;DHT22;2593;52.466;13.436;2022-12-08T17:38:20;2.50;99.90
5150;DHT22;2593;52.466;13.436;2022-12-08T17:40:46;2.50;99.90
5150;DHT22;2593;52.466;13.436;2022-12-08T17:43:12;2.50;99.90
5150;DHT22;2593;52.466;13.436;2022-12-08T17:45:46;2.50;99.90
5150;DHT22;2593;52.466;13.436;2022-12-08T17:48:12;2.40;99.90
5150;DHT22;2593;52.466;13.436;2022-12-08T17:50:43;2.40;99.90
5150;DHT22;2593;52.466;13.436;2022-12-08T17:53:10;2.40;99.90
5150;DHT22;2593;52.466;13.436;2022-12-08T17:55:37;2.40;99.90
5150;DHT22;2593;52.466;13.436;2022-12-08T17:58:04;2.30;99.90
5150;DHT22;2593;52.466;13.436;2022-12-08T18:00:30;2.30;99.90
5150;DHT22;2593;52.466;13.436;2022-12-08T18:02:56;2.30;99.90
5150;DHT22;2593;52.466;13.436;2022-12-08T18:05:22;2.30;99.90
5150;DHT22;2593;52.466;13.436;2022-12-08T18:07:48;2.30;99.90
5150;DHT22;2593;52.466;13.436;2022-12-08T18:10:15;2.20;99.90
5150;DHT22;2593;52.466;13.436;2022-12-08T18:12:41;2.20;99.90
5150;DHT22;2593;52.466;13.436;2022-12-08T18:15:09;2.20;99.90
5150;DHT22;2593;52.466;13.436;2022-12-08T18:17:35;2.20;99.90
5150;DHT22;2593;52.466;13.436;2022-12-08T18:20:01;2.20;99.90
5150;DHT22;2593;52.466;13.436;2022-12-08T18:22:26;2.20;99.90
5150;DHT22;2593;52.466;13.436;2022-12-08T18:24:53;2.10;99.90